Time;durP1;ratioP1;P1;durP2;ratioP2;P2;SDS_P1;SDS_P2;PMS_P1;PMS_P2;Temp;Humidity;BMP_temperature;BMP_pressure;BME280_temperature;BME280_humidity;BME280_pressure;Samples;Min_cycle;Max_cycle;Signal;HPM_P1;HPM_P2
2023/09/07 00:01:52;;;;;;;6.07;4.47;;;;;;;13.48;100.00;101084.45;1488791;87;21455;-78
2023/09/07 00:04:22;;;;;;;8.03;4.20;;;;;;;13.46;100.00;101085.91;1486172;87;22305;-79
2023/09/07 00:06:49;;;;;;;7.80;4.50;;;;;;;13.47;100.00;101084.12;1475377;87;21764;-78
2023/09/07 00:09:18;;;;;;;6.23;3.80;;;;;;;13.47;100.00;101091.59;1482580;88;21463;-80
2023/09/07 00:11:45;;;;;;;6.63;4.63;;;;;;;13.46;100.00;101091.23;1481565;88;22385;-81
2023/09/07 00:14:12;;;;;;;5.10;4.07;;;;;;;13.46;100.00;101097.87;1485713;88;21499;-78
2023/09/07 00:16:38;;;;;;;7.13;4.73;;;;;;;13.48;100.00;101090.59;1483514;87;21669;-80
2023/09/07 00:19:06;;;;;;;6.17;4.27;;;;;;;13.49;100.00;101098.08;1478419;87;21448;-81
2023/09/07 00:21:32;;;;;;;5.63;4.53;;;;;;;13.47;100.00;101098.24;1488868;87;21501;-81
2023/09/07 00:23:58;;;;;;;9.70;5.07;;;;;;;13.46;100.00;101101.87;1486990;88;21500;-81
2023/09/07 00:26:24;;;;;;;6.93;4.13;;;;;;;13.41;100.00;101103.33;1478187;88;21434;-81
2023/09/07 00:28:50;;;;;;;19.30;4.80;;;;;;;13.35;100.00;101095.45;1469281;88;22275;-80
2023/09/07 00:31:17;;;;;;;7.60;4.50;;;;;;;13.27;100.00;101093.53;1477628;87;21529;-82
2023/09/07 00:33:43;;;;;;;8.60;5.00;;;;;;;13.24;100.00;101089.81;1474904;88;21522;-81
2023/09/07 00:36:09;;;;;;;8.20;4.83;;;;;;;13.24;100.00;101090.31;1473843;87;21544;-79
2023/09/07 00:38:35;;;;;;;5.63;3.93;;;;;;;13.23;100.00;101080.15;1488602;87;21492;-80
2023/09/07 00:41:01;;;;;;;8.03;4.33;;;;;;;13.26;100.00;101083.03;1484604;87;22395;-79
2023/09/07 00:43:27;;;;;;;7.57;5.40;;;;;;;13.27;100.00;101084.73;1487074;88;21581;-80
2023/09/07 00:45:54;;;;;;;7.47;4.40;;;;;;;13.29;100.00;101086.72;1478453;87;22056;-79
2023/09/07 00:48:20;;;;;;;9.43;4.30;;;;;;;13.30;100.00;101081.77;1483421;88;21582;-80
2023/09/07 00:50:47;;;;;;;6.17;4.80;;;;;;;13.26;100.00;101075.06;1480678;87;22380;-79
2023/09/07 00:53:15;;;;;;;10.30;5.10;;;;;;;13.23;100.00;101076.66;1480789;88;21477;-79
2023/09/07 00:55:41;;;;;;;10.80;5.30;;;;;;;13.22;100.00;101082.97;1481670;88;21396;-79
2023/09/07 00:58:07;;;;;;;7.33;5.20;;;;;;;13.20;100.00;101080.95;1478798;87;21434;-79
2023/09/07 01:00:35;;;;;;;6.87;4.27;;;;;;;13.17;100.00;101079.42;1470403;88;21485;-80
2023/09/07 01:03:01;;;;;;;6.20;4.43;;;;;;;13.15;100.00;101074.77;1489015;88;21669;-79
2023/09/07 01:05:38;;;;;;;6.70;4.97;;;;;;;13.14;100.00;101074.90;1491419;88;21500;-80
2023/09/07 01:08:17;;;;;;;10.57;5.07;;;;;;;13.13;100.00;101074.07;1482116;87;21470;-80
2023/09/07 01:10:43;;;;;;;7.50;4.53;;;;;;;13.14;100.00;101082.88;1477681;87;21565;-79
2023/09/07 01:13:09;;;;;;;9.73;5.20;;;;;;;13.14;100.00;101077.55;1463365;88;21492;-79
2023/09/07 01:15:38;;;;;;;6.30;3.97;;;;;;;13.13;100.00;101086.53;1486676;88;21383;-79
2023/09/07 01:18:05;;;;;;;8.93;4.50;;;;;;;13.09;100.00;101082.01;1478177;87;21522;-80
2023/09/07 01:20:34;;;;;;;13.93;5.80;;;;;;;13.03;100.00;101076.79;1486158;87;21671;-78
2023/09/07 01:23:01;;;;;;;10.67;5.17;;;;;;;12.96;100.00;101083.66;1488447;87;21403;-80
2023/09/07 01:25:28;;;;;;;9.43;5.30;;;;;;;12.91;100.00;101080.60;1488628;87;21500;-79
2023/09/07 01:27:55;;;;;;;8.10;4.73;;;;;;;12.91;100.00;101079.77;1481106;88;21456;-80
2023/09/07 01:30:22;;;;;;;8.20;4.83;;;;;;;12.92;100.00;101073.46;1479658;88;21566;-80
2023/09/07 01:32:49;;;;;;;8.33;4.63;;;;;;;12.93;100.00;101079.14;1486185;87;21447;-83
2023/09/07 01:35:21;;;;;;;9.60;4.93;;;;;;;12.96;100.00;101077.52;1474056;88;22388;-82
2023/09/07 01:37:46;;;;;;;8.90;5.20;;;;;;;12.98;100.00;101075.55;1484534;88;21580;-82
2023/09/07 01:40:13;;;;;;;11.70;5.70;;;;;;;13.01;100.00;101074.77;1487015;87;22435;-83
2023/09/07 01:42:39;;;;;;;9.53;4.83;;;;;;;13.02;100.00;101080.41;1482065;87;21663;-82
2023/09/07 01:45:07;;;;;;;8.90;4.93;;;;;;;13.00;100.00;101078.38;1483787;88;21455;-79
2023/09/07 01:47:33;;;;;;;8.13;5.20;;;;;;;12.95;100.00;101082.00;1480681;87;21470;-79
2023/09/07 01:49:59;;;;;;;9.30;6.00;;;;;;;12.93;100.00;101080.47;1478761;87;21396;-78
2023/09/07 01:52:26;;;;;;;7.13;4.63;;;;;;;12.91;100.00;101075.78;1487308;87;22607;-79
2023/09/07 01:54:52;;;;;;;7.13;4.83;;;;;;;12.88;100.00;101080.89;1471284;88;21485;-79
2023/09/07 01:57:18;;;;;;;9.47;5.57;;;;;;;12.86;100.00;101083.72;1484749;87;21514;-79
2023/09/07 01:59:44;;;;;;;9.73;5.40;;;;;;;12.88;100.00;101087.54;1483388;87;21471;-79
2023/09/07 02:02:10;;;;;;;7.80;5.67;;;;;;;12.91;100.00;101088.57;1480502;88;21493;-79
2023/09/07 02:04:37;;;;;;;6.97;5.40;;;;;;;12.93;100.00;101094.58;1480193;87;21470;-79
2023/09/07 02:07:04;;;;;;;11.63;5.80;;;;;;;12.91;100.00;101098.37;1486647;88;22535;-80
2023/09/07 02:09:31;;;;;;;9.97;5.40;;;;;;;12.85;100.00;101097.96;1484113;87;21433;-80
2023/09/07 02:11:57;;;;;;;6.73;4.90;;;;;;;12.82;100.00;101100.08;1479799;87;21478;-79
2023/09/07 02:14:23;;;;;;;9.73;5.23;;;;;;;12.81;100.00;101095.77;1483304;88;21492;-79
2023/09/07 02:16:49;;;;;;;8.83;6.20;;;;;;;12.82;100.00;101092.11;1491279;87;21419;-79
2023/09/07 02:19:15;;;;;;;8.03;5.40;;;;;;;12.84;100.00;101092.81;1487810;87;21626;-80
2023/09/07 02:21:41;;;;;;;9.27;5.03;;;;;;;12.84;100.00;101096.80;1488620;87;21485;-79
2023/09/07 02:24:08;;;;;;;11.70;6.47;;;;;;;12.87;100.00;101099.16;1471566;88;21647;-80
2023/09/07 02:26:34;;;;;;;8.43;5.60;;;;;;;12.87;100.00;101096.50;1489659;87;21448;-80
2023/09/07 02:29:03;;;;;;;9.50;6.27;;;;;;;12.88;100.00;101097.66;1489262;87;22269;-80
2023/09/07 02:31:28;;;;;;;9.50;5.03;;;;;;;12.88;100.00;101098.16;1480922;87;21560;-79
2023/09/07 02:33:54;;;;;;;12.80;5.87;;;;;;;12.86;100.00;101100.16;1485060;87;22522;-79
2023/09/07 02:36:21;;;;;;;13.07;5.70;;;;;;;12.84;100.00;101096.80;1486703;87;21448;-79
2023/09/07 02:38:47;;;;;;;8.70;5.47;;;;;;;12.82;100.00;101100.91;1483092;88;21352;-79
2023/09/07 02:41:15;;;;;;;9.70;5.10;;;;;;;12.82;100.00;101102.73;1475336;87;21434;-80
2023/09/07 02:43:41;;;;;;;9.30;5.33;;;;;;;12.82;100.00;101100.08;1463541;88;21404;-79
2023/09/07 02:46:07;;;;;;;10.97;5.90;;;;;;;12.80;100.00;101100.70;1475728;88;21457;-80
2023/09/07 02:48:33;;;;;;;6.23;4.23;;;;;;;12.80;100.00;101102.03;1475077;88;21456;-80
2023/09/07 02:51:00;;;;;;;14.03;6.03;;;;;;;12.81;100.00;101103.73;1479426;87;22401;-82
2023/09/07 02:53:26;;;;;;;10.23;5.33;;;;;;;12.79;100.00;101105.19;1473365;88;21405;-83
2023/09/07 02:55:52;;;;;;;11.30;6.50;;;;;;;12.79;100.00;101105.69;1477182;87;21570;-81
2023/09/07 02:58:19;;;;;;;9.93;6.07;;;;;;;12.78;100.00;101104.85;1472291;88;21354;-82
2023/09/07 03:00:46;;;;;;;10.43;6.50;;;;;;;12.75;100.00;101099.00;1462884;88;22846;-82
2023/09/07 03:03:14;;;;;;;10.63;5.87;;;;;;;12.72;100.00;101104.61;1471912;88;21317;-80
2023/09/07 03:05:42;;;;;;;12.67;7.37;;;;;;;12.70;100.00;101105.23;1476260;88;21506;-80
2023/09/07 03:08:08;;;;;;;12.47;5.70;;;;;;;12.68;100.00;101104.53;1471160;87;22276;-80
2023/09/07 03:10:39;;;;;;;10.93;6.03;;;;;;;12.68;100.00;101104.03;1476171;87;21338;-80
2023/09/07 03:13:07;;;;;;;13.63;5.57;;;;;;;12.68;100.00;101108.52;1473671;88;22380;-80
2023/09/07 03:15:33;;;;;;;13.07;6.20;;;;;;;12.63;100.00;101108.97;1477586;87;21337;-78
2023/09/07 03:18:00;;;;;;;10.97;6.77;;;;;;;12.60;100.00;101119.84;1469948;88;21308;-79
2023/09/07 03:20:27;;;;;;;10.20;6.40;;;;;;;12.56;100.00;101111.34;1476424;88;21272;-79
2023/09/07 03:22:53;;;;;;;14.80;6.87;;;;;;;12.56;100.00;101117.98;1471999;88;21508;-79
2023/09/07 03:25:19;;;;;;;9.63;7.17;;;;;;;12.55;100.00;101117.64;1478497;87;21346;-79
2023/09/07 03:27:46;;;;;;;11.90;6.33;;;;;;;12.52;100.00;101123.24;1480132;87;21368;-78
2023/09/07 03:30:12;;;;;;;15.60;7.87;;;;;;;12.46;100.00;101129.59;1479105;87;21464;-82
2023/09/07 03:32:38;;;;;;;9.77;6.23;;;;;;;12.44;100.00;101128.92;1468787;87;21493;-81
2023/09/07 03:35:09;;;;;;;9.20;6.00;;;;;;;12.45;100.00;101130.58;1472450;87;21479;-81
2023/09/07 03:37:37;;;;;;;10.87;6.83;;;;;;;12.47;100.00;101132.12;1476328;88;22218;-80
2023/09/07 03:40:05;;;;;;;10.63;6.77;;;;;;;12.48;100.00;101137.77;1466833;88;21405;-80
2023/09/07 03:42:31;;;;;;;9.20;5.70;;;;;;;12.48;100.00;101140.42;1487607;87;21271;-80
2023/09/07 03:44:57;;;;;;;10.97;6.43;;;;;;;12.49;100.00;101136.80;1477181;87;21374;-78
2023/09/07 03:47:28;;;;;;;9.97;6.13;;;;;;;12.49;100.00;101144.77;1492065;88;21367;-79
2023/09/07 03:49:52;;;;;;;11.37;6.73;;;;;;;12.47;100.00;101140.09;1474864;88;21389;-80
2023/09/07 03:52:18;;;;;;;12.20;6.43;;;;;;;12.45;100.00;101137.22;1483830;88;22440;-80
2023/09/07 03:54:44;;;;;;;13.43;7.17;;;;;;;12.40;100.00;101138.50;1473713;87;21390;-80
2023/09/07 03:57:11;;;;;;;15.70;7.30;;;;;;;12.39;100.00;101141.28;1490172;87;21502;-79
2023/09/07 03:59:37;;;;;;;16.60;7.53;;;;;;;12.39;100.00;101150.57;1480296;88;21316;-80
2023/09/07 04:02:04;;;;;;;12.10;6.73;;;;;;;12.38;100.00;101146.25;1487874;88;22414;-80
2023/09/07 04:04:30;;;;;;;11.23;5.97;;;;;;;12.37;100.00;101145.88;1472299;88;21530;-80
2023/09/07 04:06:56;;;;;;;9.40;6.23;;;;;;;12.37;100.00;101149.87;1477814;88;21426;-80
2023/09/07 04:09:22;;;;;;;13.90;6.87;;;;;;;12.35;100.00;101154.00;1486941;88;22312;-79
2023/09/07 04:11:48;;;;;;;8.97;6.30;;;;;;;12.38;100.00;101156.87;1487132;88;22062;-80
2023/09/07 04:14:14;;;;;;;9.17;6.67;;;;;;;12.44;100.00;101156.30;1493024;88;21448;-80
2023/09/07 04:16:40;;;;;;;11.60;6.67;;;;;;;12.49;100.00;101157.22;1476956;87;21390;-78
2023/09/07 04:19:07;;;;;;;9.77;6.07;;;;;;;12.53;100.00;101154.11;1475861;87;21352;-80
2023/09/07 04:21:33;;;;;;;11.90;7.00;;;;;;;12.55;100.00;101156.64;1479104;88;21316;-80
2023/09/07 04:23:59;;;;;;;18.27;7.40;;;;;;;12.54;100.00;101157.10;1482773;88;21396;-80
2023/09/07 04:26:25;;;;;;;15.50;7.23;;;;;;;12.53;100.00;101155.44;1488136;87;21543;-80
2023/09/07 04:28:51;;;;;;;11.43;6.13;;;;;;;12.55;100.00;101161.45;1483439;87;21382;-80
2023/09/07 04:31:18;;;;;;;9.93;6.63;;;;;;;12.58;100.00;101164.31;1475282;87;21508;-79
2023/09/07 04:33:44;;;;;;;12.03;6.30;;;;;;;12.63;100.00;101157.60;1487343;87;21397;-80
2023/09/07 04:36:13;;;;;;;15.20;6.37;;;;;;;12.68;100.00;101155.83;1480970;87;21382;-80
2023/09/07 04:38:40;;;;;;;11.40;5.63;;;;;;;12.73;100.00;101152.75;1480873;87;21441;-80
2023/09/07 04:41:10;;;;;;;8.73;6.10;;;;;;;12.80;100.00;101149.84;1473514;87;21404;-81
2023/09/07 04:43:37;;;;;;;8.90;6.22;;;;;;;12.86;100.00;101155.94;1475471;87;22468;-80
2023/09/07 04:46:03;;;;;;;12.87;6.77;;;;;;;12.90;100.00;101157.31;1473354;88;21365;-81
2023/09/07 04:48:29;;;;;;;17.50;7.00;;;;;;;12.90;100.00;101155.98;1488372;87;22307;-82
2023/09/07 04:51:03;;;;;;;9.03;6.13;;;;;;;12.93;100.00;101161.50;1475672;87;21537;-81
2023/09/07 04:53:31;;;;;;;10.23;7.40;;;;;;;12.96;100.00;101174.00;1484731;88;21390;-81
2023/09/07 04:55:58;;;;;;;12.90;6.17;;;;;;;12.98;100.00;101169.88;1480112;87;21456;-80
2023/09/07 04:58:24;;;;;;;20.37;6.70;;;;;;;13.01;100.00;101173.08;1481055;88;21492;-81
2023/09/07 05:00:51;;;;;;;10.47;5.53;;;;;;;13.07;100.00;101165.84;1487691;87;21346;-81
2023/09/07 05:03:17;;;;;;;10.37;6.10;;;;;;;13.14;100.00;101171.91;1485838;87;21426;-81
2023/09/07 05:05:44;;;;;;;8.60;6.30;;;;;;;13.21;100.00;101172.52;1481702;88;22313;-81
2023/09/07 05:08:11;;;;;;;8.87;5.90;;;;;;;13.27;100.00;101179.09;1490652;87;21418;-82
2023/09/07 05:10:39;;;;;;;8.30;5.97;;;;;;;13.32;100.00;101178.14;1471204;88;21559;-81
2023/09/07 05:13:05;;;;;;;8.70;6.23;;;;;;;13.39;100.00;101177.08;1488301;87;21367;-81
2023/09/07 05:15:31;;;;;;;9.13;5.77;;;;;;;13.47;100.00;101175.36;1469153;88;21440;-82
2023/09/07 05:17:57;;;;;;;13.67;6.37;;;;;;;13.54;100.00;101184.40;1488526;87;22239;-79
2023/09/07 05:20:23;;;;;;;10.90;5.50;;;;;;;13.59;100.00;101183.13;1480845;87;22520;-80
2023/09/07 05:22:50;;;;;;;11.83;6.63;;;;;;;13.65;100.00;101182.53;1484141;87;22372;-80
2023/09/07 05:25:17;;;;;;;9.90;6.07;;;;;;;13.71;100.00;101183.27;1473507;88;21572;-80
2023/09/07 05:27:44;;;;;;;11.07;6.63;;;;;;;13.79;100.00;101184.69;1481523;87;22290;-80
2023/09/07 05:30:11;;;;;;;13.47;6.83;;;;;;;13.87;100.00;101187.44;1486714;87;21441;-79
2023/09/07 05:32:38;;;;;;;12.07;6.17;;;;;;;13.95;100.00;101180.88;1491690;88;21922;-80
2023/09/07 05:35:05;;;;;;;8.57;5.30;;;;;;;14.06;100.00;101181.63;1471513;88;21551;-80
2023/09/07 05:37:31;;;;;;;11.63;6.83;;;;;;;14.12;100.00;101180.51;1485211;88;21338;-80
2023/09/07 05:39:57;;;;;;;10.07;5.60;;;;;;;14.24;100.00;101181.11;1491969;87;21413;-79
2023/09/07 05:42:25;;;;;;;11.90;5.83;;;;;;;14.34;100.00;101184.54;1481679;87;22012;-80
2023/09/07 05:44:52;;;;;;;12.87;7.13;;;;;;;14.44;100.00;101182.64;1486083;88;21374;-80
2023/09/07 05:47:18;;;;;;;14.00;6.33;;;;;;;14.55;100.00;101184.73;1487219;87;21381;-80
2023/09/07 05:49:44;;;;;;;11.43;6.40;;;;;;;14.67;100.00;101187.48;1471986;88;22352;-80
2023/09/07 05:52:11;;;;;;;12.80;6.20;;;;;;;14.79;100.00;101190.75;1483902;87;21346;-79
2023/09/07 05:54:37;;;;;;;12.37;6.63;;;;;;;14.94;100.00;101188.34;1483012;88;21368;-79
2023/09/07 05:57:03;;;;;;;16.60;6.60;;;;;;;15.06;100.00;101187.06;1472507;88;21301;-84
2023/09/07 05:59:29;;;;;;;14.07;7.67;;;;;;;15.19;100.00;101191.95;1484050;88;21492;-81
2023/09/07 06:01:55;;;;;;;11.10;6.63;;;;;;;15.35;100.00;101194.70;1479649;88;21346;-82
2023/09/07 06:04:22;;;;;;;9.43;6.67;;;;;;;15.45;100.00;101186.56;1484237;88;21352;-81
2023/09/07 06:06:48;;;;;;;9.07;6.17;;;;;;;15.58;100.00;101193.63;1478908;88;22254;-82
2023/09/07 06:09:14;;;;;;;12.73;7.07;;;;;;;15.68;100.00;101194.84;1475504;88;21396;-81
2023/09/07 06:11:40;;;;;;;11.33;7.03;;;;;;;15.78;100.00;101193.72;1487413;87;21853;-81
2023/09/07 06:14:06;;;;;;;10.37;6.33;;;;;;;15.94;100.00;101196.08;1486055;87;21640;-83
2023/09/07 06:16:32;;;;;;;10.27;6.87;;;;;;;16.05;100.00;101198.94;1482385;87;21433;-82
2023/09/07 06:18:58;;;;;;;14.73;7.27;;;;;;;16.18;100.00;101201.97;1483438;87;21404;-82
2023/09/07 06:21:25;;;;;;;13.97;7.57;;;;;;;16.32;100.00;101196.48;1478701;87;21366;-81
2023/09/07 06:23:51;;;;;;;9.87;6.43;;;;;;;16.51;100.00;101202.80;1479312;88;21330;-82
2023/09/07 06:26:19;;;;;;;12.30;7.20;;;;;;;16.69;100.00;101210.16;1479399;88;22446;-82
2023/09/07 06:28:45;;;;;;;12.70;7.77;;;;;;;16.84;100.00;101210.84;1566001;87;21510;-83
2023/09/07 06:31:11;;;;;;;12.50;7.07;;;;;;;16.97;100.00;101213.81;1412969;87;21338;-79
2023/09/07 06:33:37;;;;;;;12.17;6.83;;;;;;;17.10;100.00;101210.11;1407546;88;22181;-80
2023/09/07 06:36:04;;;;;;;14.57;7.67;;;;;;;17.29;100.00;101209.38;1407372;88;21257;-81
2023/09/07 06:38:30;;;;;;;12.83;8.13;;;;;;;17.39;100.00;101207.34;1407118;87;21337;-81
2023/09/07 06:40:56;;;;;;;10.57;6.90;;;;;;;17.50;100.00;101212.83;1407982;87;21250;-82
2023/09/07 06:43:22;;;;;;;15.03;7.27;;;;;;;17.62;100.00;101214.62;1563356;88;22253;-81
2023/09/07 06:45:49;;;;;;;12.57;6.90;;;;;;;17.74;100.00;101217.22;1407237;87;21324;-81
2023/09/07 06:48:15;;;;;;;9.93;7.37;;;;;;;17.88;100.00;101207.13;1407050;87;21989;-82
2023/09/07 06:50:41;;;;;;;14.57;7.97;;;;;;;17.94;100.00;101209.10;1408629;88;21394;-81
2023/09/07 06:53:08;;;;;;;10.95;6.78;;;;;;;18.10;100.00;101210.03;1407198;88;21308;-81
2023/09/07 06:55:34;;;;;;;12.33;7.50;;;;;;;18.24;100.00;101206.55;1406310;88;22131;-82
2023/09/07 06:58:01;;;;;;;13.15;7.75;;;;;;;18.30;100.00;101210.36;1491275;88;21500;-81
2023/09/07 07:00:27;;;;;;;12.13;7.60;;;;;;;18.39;100.00;101210.14;1481274;87;21463;-83
2023/09/07 07:02:54;;;;;;;13.88;7.83;;;;;;;18.49;100.00;101205.86;1476236;87;21567;-83
2023/09/07 07:05:22;;;;;;;12.25;7.47;;;;;;;18.67;100.00;101210.89;1480839;87;21523;-82
2023/09/07 07:07:48;;;;;;;13.32;7.60;;;;;;;18.81;100.00;101212.80;1479850;88;21315;-83
2023/09/07 07:10:14;;;;;;;11.90;7.08;;;;;;;18.89;100.00;101215.40;1481502;87;21404;-85
2023/09/07 07:12:40;;;;;;;11.53;7.72;;;;;;;18.90;100.00;101217.09;1483180;88;21337;-83
2023/09/07 07:15:08;;;;;;;21.00;8.78;;;;;;;19.00;100.00;101209.27;1479531;87;21404;-83
2023/09/07 07:17:34;;;;;;;16.97;8.80;;;;;;;19.14;100.00;101215.16;1405807;88;21309;-80
2023/09/07 07:20:00;;;;;;;13.22;7.12;;;;;;;19.35;100.00;101209.86;1396533;88;22293;-84
2023/09/07 07:22:26;;;;;;;10.88;6.17;;;;;;;19.52;100.00;101212.36;1396263;88;21257;-85
2023/09/07 07:24:52;;;;;;;10.20;6.67;;;;;;;19.60;100.00;101210.91;1413302;87;21279;-82
2023/09/07 07:27:18;;;;;;;13.50;8.60;;;;;;;19.70;100.00;101216.83;1556152;88;21265;-82
2023/09/07 07:29:45;;;;;;;10.43;7.35;;;;;;;19.79;100.00;101212.19;1407362;87;21309;-83
2023/09/07 07:32:11;;;;;;;12.78;7.70;;;;;;;19.91;100.00;101208.00;1406329;87;22070;-83
2023/09/07 07:34:41;;;;;;;11.80;6.75;;;;;;;20.01;100.00;101205.00;1407161;87;21316;-81
2023/09/07 07:37:07;;;;;;;10.23;6.90;;;;;;;20.13;100.00;101210.17;1409900;87;21286;-82
2023/09/07 07:39:33;;;;;;;11.10;6.55;;;;;;;20.21;100.00;101215.43;1407359;87;22286;-86
2023/09/07 07:41:59;;;;;;;24.07;8.18;;;;;;;20.40;100.00;101215.31;1411499;87;22144;-83
2023/09/07 07:44:25;;;;;;;8.88;7.05;;;;;;;20.52;100.00;101210.24;1559121;87;21346;-81
2023/09/07 07:46:51;;;;;;;8.95;6.17;;;;;;;20.65;100.00;101215.74;1540349;88;21302;-82
2023/09/07 07:49:18;;;;;;;12.25;6.70;;;;;;;20.78;100.00;101216.89;1559126;88;21178;-82
2023/09/07 07:51:44;;;;;;;9.65;6.72;;;;;;;20.94;100.00;101209.84;1398904;88;21220;-82
2023/09/07 07:54:10;;;;;;;9.85;6.30;;;;;;;20.94;100.00;101201.77;1391964;89;21331;-84
2023/09/07 07:56:36;;;;;;;9.48;5.78;;;;;;;21.01;100.00;101213.42;1398564;87;21358;-82
2023/09/07 07:59:03;;;;;;;8.05;6.25;;;;;;;21.06;100.00;101217.71;1471088;87;22358;-83
2023/09/07 08:01:29;;;;;;;9.20;5.87;;;;;;;21.23;100.00;101218.20;1470258;88;21493;-83
2023/09/07 08:03:55;;;;;;;10.40;6.83;;;;;;;21.30;100.00;101215.05;1462545;88;21346;-80
2023/09/07 08:06:22;;;;;;;12.30;7.10;;;;;;;21.43;100.00;101221.03;1468990;87;21315;-79
2023/09/07 08:08:48;;;;;;;10.43;6.87;;;;;;;21.52;100.00;101215.81;1472854;87;22409;-80
2023/09/07 08:11:14;;;;;;;8.65;6.25;;;;;;;21.68;100.00;101217.83;1477506;87;21309;-79
2023/09/07 08:13:40;;;;;;;12.70;6.90;;;;;;;21.81;100.00;101215.20;1476521;88;21493;-78
2023/09/07 08:16:07;;;;;;;14.05;6.47;;;;;;;21.99;100.00;101214.62;1469361;88;22123;-78
2023/09/07 08:18:34;;;;;;;8.38;5.97;;;;;;;22.18;100.00;101213.86;1476632;87;21544;-79
2023/09/07 08:21:01;;;;;;;10.90;6.28;;;;;;;22.33;100.00;101205.58;1464359;88;21376;-79
2023/09/07 08:23:27;;;;;;;11.30;6.42;;;;;;;22.37;100.00;101205.98;1474785;87;21367;-83
2023/09/07 08:25:54;;;;;;;10.40;6.67;;;;;;;22.51;100.00;101209.83;1469026;88;22276;-82
2023/09/07 08:28:22;;;;;;;10.18;6.08;;;;;;;22.58;100.00;101213.04;1473628;88;21904;-81
2023/09/07 08:30:56;;;;;;;14.75;8.50;;;;;;;22.62;100.00;101212.43;1448365;88;22454;-81
2023/09/07 08:33:23;;;;;;;13.55;6.03;;;;;;;22.55;100.00;101210.23;1474184;88;21434;-82
2023/09/07 08:35:57;;;;;;;10.45;6.35;;;;;;;22.62;100.00;101211.08;1476434;87;22277;-82
2023/09/07 08:38:27;;;;;;;10.55;7.60;;;;;;;22.75;100.00;101207.53;1482555;88;22456;-82
2023/09/07 08:40:57;;;;;;;10.95;6.42;;;;;;;22.92;100.00;101204.70;1476964;87;21465;-82
2023/09/07 08:43:24;;;;;;;13.90;7.53;;;;;;;23.07;100.00;101207.20;1483426;87;21523;-82
2023/09/07 08:46:06;;;;;;;9.68;6.80;;;;;;;23.13;100.00;101205.02;1470885;87;21292;-82
2023/09/07 08:48:33;;;;;;;9.65;5.97;;;;;;;23.26;100.00;101213.59;1473891;88;21390;-83
2023/09/07 08:51:00;;;;;;;14.33;6.58;;;;;;;23.27;100.00;101209.02;1468463;88;21581;-82
2023/09/07 08:53:27;;;;;;;9.43;5.80;;;;;;;23.37;100.00;101214.81;1475862;88;21338;-82
2023/09/07 08:55:54;;;;;;;7.92;5.80;;;;;;;23.35;100.00;101204.21;1478842;88;21508;-83
2023/09/07 08:58:20;;;;;;;8.30;5.55;;;;;;;23.52;100.00;101208.62;1476119;87;21368;-82
2023/09/07 09:00:47;;;;;;;13.80;6.70;;;;;;;23.61;100.00;101199.75;1477094;87;21346;-82
2023/09/07 09:03:13;;;;;;;9.35;5.85;;;;;;;23.62;100.00;101197.34;1469757;88;21486;-82
2023/09/07 09:05:41;;;;;;;7.40;5.17;;;;;;;23.71;100.00;101202.00;1478074;88;21519;-83
2023/09/07 09:08:08;;;;;;;9.40;5.45;;;;;;;23.95;100.00;101197.73;1475857;87;21404;-85
2023/09/07 09:10:34;;;;;;;8.53;5.15;;;;;;;24.13;100.00;101194.28;1475592;88;22300;-84
2023/09/07 09:13:00;;;;;;;7.35;4.92;;;;;;;24.19;100.00;101196.93;1475550;88;21648;-83
2023/09/07 09:15:27;;;;;;;8.65;5.60;;;;;;;24.19;100.00;101191.52;1480861;88;22212;-84
2023/09/07 09:17:53;;;;;;;9.10;5.20;;;;;;;24.19;100.00;101185.29;1474157;87;21489;-85
2023/09/07 09:20:26;;;;;;;7.53;5.03;;;;;;;24.29;100.00;101186.47;1478879;87;21279;-84
2023/09/07 09:22:54;;;;;;;12.63;5.72;;;;;;;24.30;100.00;101180.53;1465062;88;22240;-84
2023/09/07 09:25:22;;;;;;;22.48;6.53;;;;;;;24.48;100.00;101185.19;1470400;87;21324;-84
2023/09/07 09:27:48;;;;;;;13.55;6.25;;;;;;;24.63;100.00;101180.79;1470132;88;21434;-84
2023/09/07 09:30:16;;;;;;;6.00;4.60;;;;;;;24.74;100.00;101174.15;1474904;88;21368;-84
2023/09/07 09:32:44;;;;;;;11.35;5.25;;;;;;;24.86;100.00;101177.44;1474297;87;21361;-84
2023/09/07 09:35:10;;;;;;;7.55;5.05;;;;;;;24.90;100.00;101171.90;1479583;88;22204;-85
2023/09/07 09:37:48;;;;;;;6.92;5.47;;;;;;;25.05;100.00;101175.59;1471568;87;21486;-84
2023/09/07 09:40:18;;;;;;;8.13;4.83;;;;;;;25.18;100.00;101176.30;1468261;88;22271;-84
2023/09/07 09:42:45;;;;;;;6.00;4.85;;;;;;;25.35;100.00;101179.77;1476856;88;21602;-85
2023/09/07 09:45:12;;;;;;;10.35;5.00;;;;;;;25.48;100.00;101166.56;1482559;87;21545;-85
2023/09/07 09:47:42;;;;;;;9.33;4.83;;;;;;;25.60;100.00;101159.30;1485039;88;21300;-85
2023/09/07 09:50:11;;;;;;;11.53;4.92;;;;;;;25.75;100.00;101162.95;1479787;87;21515;-85
2023/09/07 09:52:38;;;;;;;7.50;4.87;;;;;;;25.87;100.00;101167.94;1474131;88;21441;-85
2023/09/07 09:55:12;;;;;;;12.70;5.10;;;;;;;25.90;99.82;101157.98;1485618;88;21486;-85
2023/09/07 09:57:36;;;;;;;12.03;5.05;;;;;;;26.00;96.77;101161.47;1484263;88;21611;-85
2023/09/07 10:00:25;;;;;;;8.15;5.15;;;;;;;25.95;97.14;101168.11;1469584;88;21628;-86
2023/09/07 10:02:59;;;;;;;5.70;4.22;;;;;;;25.84;94.82;101165.69;1487972;87;22417;-86
2023/09/07 10:05:26;;;;;;;6.42;4.25;;;;;;;25.78;94.85;101164.69;1485452;87;21404;-87
2023/09/07 10:07:52;;;;;;;8.28;4.33;;;;;;;25.90;87.53;101157.16;1481423;87;21566;-85
2023/09/07 10:10:19;;;;;;;5.53;3.98;;;;;;;25.95;84.38;101154.05;1487602;87;21552;-86
2023/09/07 10:12:53;;;;;;;10.03;4.60;;;;;;;25.97;84.64;101158.69;1488304;88;21537;-86
2023/09/07 10:15:26;;;;;;;9.63;4.50;;;;;;;26.06;86.05;101153.75;1484361;88;21434;-85
2023/09/07 10:18:15;;;;;;;8.48;4.83;;;;;;;26.13;84.14;101157.20;1483653;87;22261;-84
2023/09/07 10:20:58;;;;;;;6.55;4.75;;;;;;;26.03;83.38;101153.69;1475128;87;22277;-85
2023/09/07 10:23:43;;;;;;;7.20;4.60;;;;;;;25.99;64.38;101157.12;1482921;87;22203;-86
2023/09/07 10:26:17;;;;;;;6.03;4.30;;;;;;;25.96;65.19;101159.76;1475273;88;21389;-86
2023/09/07 10:28:45;;;;;;;9.43;4.35;;;;;;;25.95;62.18;101158.12;1472176;88;21387;-87
2023/09/07 10:31:19;;;;;;;11.57;5.25;;;;;;;26.08;57.01;101147.05;1480929;88;21397;-86
2023/09/07 10:33:49;;;;;;;10.45;4.72;;;;;;;26.13;53.85;101145.53;1487818;87;21411;-86
2023/09/07 10:36:23;;;;;;;5.92;3.67;;;;;;;26.28;55.59;101149.97;1481547;88;21352;-86
2023/09/07 10:38:54;;;;;;;5.15;3.92;;;;;;;26.41;55.67;101144.30;1485761;87;21611;-86
2023/09/07 10:41:20;;;;;;;6.45;4.83;;;;;;;26.61;55.99;101144.52;1484112;88;22269;-87
2023/09/07 10:43:57;;;;;;;4.95;4.22;;;;;;;26.69;54.91;101146.88;1480959;87;21612;-85
2023/09/07 10:46:24;;;;;;;5.92;3.87;;;;;;;26.77;52.86;101146.52;1482677;87;21352;-86
2023/09/07 10:48:52;;;;;;;4.60;4.10;;;;;;;26.72;46.99;101144.50;1483136;88;22219;-86
2023/09/07 10:51:20;;;;;;;5.28;4.30;;;;;;;26.67;47.68;101138.13;1473012;88;21382;-87
2023/09/07 10:53:46;;;;;;;6.58;4.30;;;;;;;26.80;47.61;101147.94;1466526;88;21655;-85
2023/09/07 10:56:13;;;;;;;7.53;5.00;;;;;;;26.89;47.60;101144.61;1488486;88;22245;-86
2023/09/07 10:58:42;;;;;;;5.45;4.28;;;;;;;26.94;46.78;101146.63;1486208;87;21382;-85
2023/09/07 11:01:10;;;;;;;5.70;3.87;;;;;;;27.08;47.36;101143.11;1478762;88;21441;-85
2023/09/07 11:03:38;;;;;;;6.53;4.40;;;;;;;27.20;47.54;101140.67;1411635;88;21279;-84
2023/09/07 11:10:07;;;;;;;6.95;4.35;;;;;;;27.14;45.06;101137.53;1481384;88;21460;-86
2023/09/07 11:12:40;;;;;;;5.42;3.98;;;;;;;27.11;45.80;101136.66;1487821;87;21389;-85
2023/09/07 11:15:11;;;;;;;7.22;4.10;;;;;;;27.25;46.81;101139.97;1488797;87;21555;-85
2023/09/07 11:17:42;;;;;;;6.30;4.47;;;;;;;27.35;46.33;101132.53;1485122;87;21462;-84
2023/09/07 11:20:10;;;;;;;7.33;3.98;;;;;;;27.36;46.05;101137.74;1556536;88;21461;-85